Terminal Aerodrome Forecast
Issued by NWS

Home | Current Version | Previous Version | Graphics & Text | Print | Product List | Glossary On
Versions: 1 2 3 4 5 6 7 8 9 10 11 12 13 14 15 16 17
005
FTUS43 KMPX 191732
TAFAXN
TAF
KAXN 191732Z 1918/2018 09010KT P6SM OVC150
     FM200000 08007KT P6SM OVC090
     FM201300 07008KT P6SM OVC050
     FM201600 07010KT 5SM -RA BR OVC025=

USA.gov is the U.S. government's official web portal to all federal, state and local government web resources and services.